MOL Modern — V7VS6 — position and weather

sailwx.info

Track history (hours):
 
Tides and Currents Weather Stations Pressure Air Temp Water Temp Dewpoint Dewpoint Depression Visibility Wind Speed Wind Dir Waves Ship Positions

MOL Modern

Last reported at 2014-Oct-25 17:33 UTC. Time now 2014-Oct-31 12:55 UTC.
Position N 38°24' W 123°54'.

Length 302 m; draft 11.5 m.

Type: Ship (hazmat cat A). MMSI: 538004203.

Date/timePositionNaut miles runAvg speedWind from/ knotsBaromVisibWave heightAir tempDewpointWater temp
2014-Oct-25 17:33N 38°24' W 123°54'1616.2
2014-Oct-25 16:33N 38°13' W 123°40'1615.9
2014-Oct-25 15:33N 38°08' W 123°20'1716.9
2014-Oct-25 14:33N 37°57' W 123°05'1717.3
2014-Oct-25 13:34N 37°48' W 122°46'1312.7
2014-Oct-25 12:33N 37°49' W 122°30'8 8.0
2014-Oct-25 11:33N 37°49' W 122°20'0 0.3
2014-Oct-25 10:32N 37°49' W 122°20'0 0.0
2014-Oct-25 09:32N 37°49' W 122°20'0 0.0
2014-Oct-25 08:32N 37°49' W 122°20'0 0.0
2014-Oct-25 07:32N 37°49' W 122°20'0 0.0
2014-Oct-25 06:32N 37°49' W 122°20'0 0.0
2014-Oct-25 05:32N 37°49' W 122°20'0 0.0
2014-Oct-25 04:32N 37°49' W 122°20'0 0.0
2014-Oct-25 03:32N 37°49' W 122°20'0 0.0
2014-Oct-25 02:32N 37°49' W 122°20'0 0.0
2014-Oct-25 01:32N 37°49' W 122°20'0 0.0
2014-Oct-25 00:32N 37°49' W 122°20'0 0.0
2014-Oct-24 23:32N 37°49' W 122°20'0 0.0
2014-Oct-24 22:32N 37°49' W 122°20'0 0.0
2014-Oct-24 21:32N 37°49' W 122°20'0 0.0
2014-Oct-24 20:32N 37°49' W 122°20'0 0.0
2014-Oct-24 19:32N 37°49' W 122°20'0 0.0
2014-Oct-24 18:32N 37°49' W 122°20'0 0.0
2014-Oct-24 17:32N 37°49' W 122°20'0 0.0
2014-Oct-24 16:32N 37°49' W 122°20'0 0.0
2014-Oct-24 15:32N 37°49' W 122°20'0 0.0
2014-Oct-24 14:32N 37°49' W 122°20'0 0.0
2014-Oct-24 13:32N 37°49' W 122°20'0 0.0
2014-Oct-24 12:32N 37°49' W 122°20'0 0.0
2014-Oct-24 11:32N 37°49' W 122°20'0 0.0
2014-Oct-24 10:32N 37°49' W 122°20'0 0.0
2014-Oct-24 09:32N 37°49' W 122°20'0 0.0
2014-Oct-24 08:32N 37°49' W 122°20'0 0.0
2014-Oct-24 07:32N 37°49' W 122°20'0 0.0
2014-Oct-24 06:32N 37°49' W 122°20'0 0.0
2014-Oct-24 05:32N 37°49' W 122°20'0 0.0
2014-Oct-24 04:32N 37°49' W 122°20'0 0.0
2014-Oct-24 03:32N 37°49' W 122°20'0 0.0
2014-Oct-24 02:32N 37°49' W 122°20'0 0.0
2014-Oct-24 01:32N 37°49' W 122°20'0 0.0
2014-Oct-24 00:33N 37°49' W 122°20'4 4.4
2014-Oct-23 23:33N 37°49' W 122°25'1313.1
2014-Oct-23 22:33N 37°45' W 122°41'10 9.5
2014-Oct-23 21:34N 37°39' W 122°51'1919.1
2014-Oct-23 20:33N 37°23' W 123°04'2220.9
2014-Oct-23 19:31N 37°03' W 122°54'2020.8
2014-Oct-23 18:33N 36°44' W 122°44'2121.2
2014-Oct-23 17:34N 36°25' W 122°33'2121.4
2014-Oct-23 16:34N 36°06' W 122°21'2121.5
2014-Oct-23 15:34N 35°47' W 122°08'2121.2
2014-Oct-23 14:34N 35°30' W 121°53'2120.9
2014-Oct-23 13:34N 35°12' W 121°39'2120.5
2014-Oct-23 12:34N 34°56' W 121°24'2120.7
2014-Oct-23 11:33N 34°41' W 121°07'2120.6
2014-Oct-23 10:34N 34°26' W 120°50'2420.8
2014-Oct-23 09:25N 34°19' W 120°22'1820.7
2014-Oct-23 08:34N 34°15' W 120°01'2120.8
2014-Oct-23 07:34N 34°09' W 119°37'2020.3
2014-Oct-23 06:34N 34°03' W 119°13'1413.9
2014-Oct-23 05:33N 33°56' W 118°59'1111.4
2014-Oct-23 04:34N 33°51' W 118°47'1111.4
2014-Oct-23 03:33N 33°45' W 118°35'1111.1
2014-Oct-23 02:33N 33°40' W 118°23'8 7.7
2014-Oct-23 01:33N 33°43' W 118°15'4 3.6
2014-Oct-23 00:33N 33°46' W 118°16'0 0.0
2014-Oct-22 23:33N 33°46' W 118°16'0 0.0
2014-Oct-22 22:33N 33°46' W 118°16'0 0.0
2014-Oct-22 21:33N 33°46' W 118°16'0 0.0
2014-Oct-22 20:33N 33°46' W 118°16'0 0.0
2014-Oct-22 19:33N 33°46' W 118°16'0 0.0
2014-Oct-22 18:33N 33°46' W 118°16'0 0.0
2014-Oct-22 17:33N 33°46' W 118°16'0 0.0
2014-Oct-22 16:33N 33°46' W 118°16'0 0.0
2014-Oct-22 15:33N 33°46' W 118°16'0 0.0
2014-Oct-22 14:33N 33°46' W 118°16'0 0.0
2014-Oct-22 13:33N 33°46' W 118°16'0 0.0
2014-Oct-22 12:33N 33°46' W 118°16'0 0.0
2014-Oct-22 11:33N 33°46' W 118°16'0 0.0
2014-Oct-22 10:33N 33°46' W 118°16'0 0.0
2014-Oct-22 09:33N 33°46' W 118°16'0 0.0
2014-Oct-22 08:33N 33°46' W 118°16'0 0.0
2014-Oct-22 07:33N 33°46' W 118°16'0 0.0
2014-Oct-22 06:33N 33°46' W 118°16'0 0.0
2014-Oct-22 05:33N 33°46' W 118°16'0 0.0
2014-Oct-22 04:30N 33°46' W 118°16'0 0.0
2014-Oct-22 03:33N 33°46' W 118°16'0 0.0
2014-Oct-22 02:33N 33°46' W 118°16'0 0.0
2014-Oct-22 01:33N 33°46' W 118°16'0 0.0
2014-Oct-22 00:33N 33°46' W 118°16'0 0.0
2014-Oct-21 23:33N 33°46' W 118°16'0 0.0
2014-Oct-21 22:33N 33°46' W 118°16'0 0.0
2014-Oct-21 21:33N 33°46' W 118°16'0 0.0
2014-Oct-21 20:33N 33°46' W 118°16'0 0.0
2014-Oct-21 19:30N 33°46' W 118°16'0 0.0
2014-Oct-21 18:33N 33°46' W 118°16'0 0.0
2014-Oct-21 17:33N 33°46' W 118°16'0 0.0
2014-Oct-21 16:33N 33°46' W 118°16'0 0.0
2014-Oct-21 15:33N 33°46' W 118°16'0 0.0
2014-Oct-21 14:33N 33°46' W 118°16'0 0.0
2014-Oct-21 13:33N 33°46' W 118°16'0 0.0
2014-Oct-21 12:33N 33°46' W 118°16'0 0.0
2014-Oct-21 11:30N 33°46' W 118°16'0 0.0
2014-Oct-21 10:33N 33°46' W 118°16'0 0.0
2014-Oct-21 09:33N 33°46' W 118°16'0 0.0
2014-Oct-21 08:33N 33°46' W 118°16'0 0.0
2014-Oct-21 07:33N 33°46' W 118°16'0 0.0
2014-Oct-21 06:33N 33°46' W 118°16'0 0.0
2014-Oct-21 05:33N 33°46' W 118°16'0 0.0
2014-Oct-21 04:33N 33°46' W 118°16'0 0.0
2014-Oct-21 03:33N 33°46' W 118°16'0 0.0
2014-Oct-21 02:33N 33°46' W 118°16'0 0.0
2014-Oct-21 01:33N 33°46' W 118°16'0 0.0
2014-Oct-21 00:33N 33°46' W 118°16'0 0.0
2014-Oct-20 23:33N 33°46' W 118°16'0 0.0
2014-Oct-20 22:33N 33°46' W 118°16'0 0.0
2014-Oct-20 21:33N 33°46' W 118°16'0 0.0
2014-Oct-20 20:33N 33°46' W 118°16'0 0.0
2014-Oct-20 19:32N 33°46' W 118°16'0 0.0
2014-Oct-20 18:33N 33°46' W 118°16'0 0.0
2014-Oct-20 17:33N 33°46' W 118°16'0 0.0
2014-Oct-20 16:33N 33°46' W 118°16'0 0.1
2014-Oct-20 15:33N 33°46' W 118°16'0 0.0
2014-Oct-20 14:33N 33°46' W 118°16'0 0.0
2014-Oct-20 13:32N 33°46' W 118°16'0 0.0
2014-Oct-20 12:33N 33°46' W 118°16'0 0.0
2014-Oct-20 11:33N 33°46' W 118°16'0 0.0
2014-Oct-20 10:33N 33°46' W 118°16'0 0.0
2014-Oct-20 09:33N 33°46' W 118°16'0 0.0
2014-Oct-20 08:33N 33°46' W 118°16'0 0.0
2014-Oct-20 07:33N 33°46' W 118°16'0 0.0
2014-Oct-20 06:33N 33°46' W 118°16'0 0.0
2014-Oct-20 05:32N 33°46' W 118°16'0 0.0
2014-Oct-20 04:33N 33°46' W 118°16'0 0.0
2014-Oct-20 03:33N 33°46' W 118°16'0 0.0
2014-Oct-20 02:33N 33°46' W 118°16'0 0.0
2014-Oct-20 01:33N 33°46' W 118°16'0 0.0
2014-Oct-20 00:32N 33°46' W 118°16'0 0.0
2014-Oct-19 23:32N 33°46' W 118°16'0 0.0
2014-Oct-19 22:32N 33°46' W 118°16'0 0.0
2014-Oct-19 21:32N 33°46' W 118°16'0 0.0
2014-Oct-19 20:32N 33°46' W 118°16'0 0.0
2014-Oct-19 19:32N 33°46' W 118°16'0 0.0
2014-Oct-19 18:32N 33°46' W 118°16'0 0.0
2014-Oct-19 17:32N 33°46' W 118°16'0 0.0
2014-Oct-19 16:32N 33°46' W 118°16'0 0.0
2014-Oct-19 15:32N 33°46' W 118°16'0 0.0
2014-Oct-19 14:32N 33°46' W 118°16'0 0.0
2014-Oct-19 13:32N 33°46' W 118°16'0 0.0
2014-Oct-19 12:32N 33°46' W 118°16'0 0.0
2014-Oct-19 11:32N 33°46' W 118°16'0 0.0
2014-Oct-19 10:30N 33°46' W 118°16'0 0.0
2014-Oct-19 09:32N 33°46' W 118°16'0 0.0
2014-Oct-19 08:32N 33°46' W 118°16'0 0.0
2014-Oct-19 07:32N 33°46' W 118°16'0 0.0
2014-Oct-19 06:32N 33°46' W 118°16'0 0.0
2014-Oct-19 05:32N 33°46' W 118°16'0 0.0
2014-Oct-19 04:32N 33°46' W 118°16'0 0.0
2014-Oct-19 03:32N 33°46' W 118°16'0 0.0
2014-Oct-19 02:32N 33°46' W 118°16'0 0.0
2014-Oct-19 01:32N 33°46' W 118°16'0 0.0
2014-Oct-19 00:32N 33°46' W 118°16'0 0.0
2014-Oct-18 23:32N 33°46' W 118°16'0 0.0
2014-Oct-18 22:29N 33°46' W 118°16'0 0.0
2014-Oct-18 21:32N 33°46' W 118°16'0 0.0
2014-Oct-18 20:32N 33°46' W 118°16'0 0.0
2014-Oct-18 19:32N 33°46' W 118°16'0 0.0
2014-Oct-18 18:32N 33°46' W 118°16'0 0.0
2014-Oct-18 17:32N 33°46' W 118°16'0 0.0
2014-Oct-18 16:32N 33°46' W 118°16'0 0.0
2014-Oct-18 15:32N 33°46' W 118°16'0 0.0
2014-Oct-18 14:32N 33°46' W 118°16'0 0.0
2014-Oct-18 13:29N 33°46' W 118°16'0 0.0
2014-Oct-18 12:32N 33°46' W 118°16'0 0.0
2014-Oct-18 11:32N 33°46' W 118°16'0 0.0
2014-Oct-18 10:32N 33°46' W 118°16'0 0.0
2014-Oct-18 09:32N 33°46' W 118°16'0 0.0
2014-Oct-18 08:32N 33°46' W 118°16'0 0.0
2014-Oct-18 07:32N 33°46' W 118°16'0 0.0
2014-Oct-18 06:32N 33°46' W 118°16'0 0.0
2014-Oct-18 05:32N 33°46' W 118°16'0 0.0
2014-Oct-18 04:32N 33°46' W 118°16'0 0.0
2014-Oct-18 03:32N 33°46' W 118°16'0 0.0
2014-Oct-18 02:32N 33°46' W 118°16'0 0.0
2014-Oct-18 01:32N 33°46' W 118°16'0 0.0
2014-Oct-18 00:32N 33°46' W 118°16'0 0.0
2014-Oct-17 23:32N 33°46' W 118°16'0 0.0
2014-Oct-17 22:32N 33°46' W 118°16'0 0.0
2014-Oct-17 21:32N 33°46' W 118°16'0 0.0
2014-Oct-17 20:32N 33°46' W 118°16'0 0.0
2014-Oct-17 19:32N 33°46' W 118°16'0 0.0
2014-Oct-17 18:32N 33°46' W 118°16'0 0.0
2014-Oct-17 17:32N 33°46' W 118°16'0 0.0
2014-Oct-17 16:32N 33°46' W 118°16'0 0.0
2014-Oct-17 15:32N 33°46' W 118°16'0 0.0
2014-Oct-17 14:32N 33°46' W 118°16'0 0.0
2014-Oct-17 13:32N 33°46' W 118°16'0 0.0
2014-Oct-17 12:32N 33°46' W 118°16'0 0.0
2014-Oct-17 11:32N 33°46' W 118°16'0 0.0
2014-Oct-17 10:32N 33°46' W 118°16'0 0.0
2014-Oct-17 09:32N 33°46' W 118°16'0 0.0
2014-Oct-17 08:32N 33°46' W 118°16'0 0.0
2014-Oct-17 07:32N 33°46' W 118°16'0 0.0
2014-Oct-17 06:32N 33°46' W 118°16'0 0.0
2014-Oct-17 05:32N 33°46' W 118°16'0 0.0
2014-Oct-17 04:32N 33°46' W 118°16'0 0.0
2014-Oct-17 03:32N 33°46' W 118°16'0 0.0
2014-Oct-17 02:32N 33°46' W 118°16'0 0.0
2014-Oct-17 01:29N 33°46' W 118°16'0 0.0
2014-Oct-17 00:32N 33°46' W 118°16'2 2.0
2014-Oct-16 23:34N 33°44' W 118°16'6 6.0
2014-Oct-16 22:31N 33°38' W 118°14'10 9.9
2014-Oct-16 21:33N 33°38' W 118°25'1211.7
2014-Oct-16 20:34N 33°44' W 118°38'1111.0
2014-Oct-16 19:33N 33°50' W 118°49'2611.0
2014-Oct-16 17:10N 34°03' W 119°16'811.2
2014-Oct-16 16:30N 34°04' W 119°25'9 9.1
2014-Oct-16 15:33N 34°07' W 119°35'1111.0
2014-Oct-16 14:33N 34°10' W 119°48'1111.5
2014-Oct-16 13:34N 34°13' W 120°01'1111.4
2014-Oct-16 12:34N 34°16' W 120°15'1111.2
2014-Oct-16 11:33N 34°19' W 120°28'23 5.1
2014-Oct-16 07:03N 34°28' W 120°53'  
Track history (hours):
 
Tides and Currents Weather Stations Pressure Air Temp Water Temp Dewpoint Dewpoint Depression Visibility Wind Speed Wind Dir Waves Ship Positions

MOL Modern

Last reported at 2014-Oct-25 17:33 UTC. Time now 2014-Oct-31 12:55 UTC.
Position N 38°24' W 123°54'.

Length 302 m; draft 11.5 m.

Type: Ship (hazmat cat A). MMSI: 538004203.

Date/timePositionNaut miles runAvg speedWind from/ knotsBaromVisibWave heightAir tempDewpointWater temp
2014-Oct-25 17:33N 38°24' W 123°54'1616.2
2014-Oct-25 16:33N 38°13' W 123°40'1615.9
2014-Oct-25 15:33N 38°08' W 123°20'1716.9
2014-Oct-25 14:33N 37°57' W 123°05'1717.3
2014-Oct-25 13:34N 37°48' W 122°46'1312.7
2014-Oct-25 12:33N 37°49' W 122°30'8 8.0
2014-Oct-25 11:33N 37°49' W 122°20'0 0.3
2014-Oct-25 10:32N 37°49' W 122°20'0 0.0
2014-Oct-25 09:32N 37°49' W 122°20'0 0.0
2014-Oct-25 08:32N 37°49' W 122°20'0 0.0
2014-Oct-25 07:32N 37°49' W 122°20'0 0.0
2014-Oct-25 06:32N 37°49' W 122°20'0 0.0
2014-Oct-25 05:32N 37°49' W 122°20'0 0.0
2014-Oct-25 04:32N 37°49' W 122°20'0 0.0
2014-Oct-25 03:32N 37°49' W 122°20'0 0.0
2014-Oct-25 02:32N 37°49' W 122°20'0 0.0
2014-Oct-25 01:32N 37°49' W 122°20'0 0.0
2014-Oct-25 00:32N 37°49' W 122°20'0 0.0
2014-Oct-24 23:32N 37°49' W 122°20'0 0.0
2014-Oct-24 22:32N 37°49' W 122°20'0 0.0
2014-Oct-24 21:32N 37°49' W 122°20'0 0.0
2014-Oct-24 20:32N 37°49' W 122°20'0 0.0
2014-Oct-24 19:32N 37°49' W 122°20'0 0.0
2014-Oct-24 18:32N 37°49' W 122°20'0 0.0
2014-Oct-24 17:32N 37°49' W 122°20'0 0.0
2014-Oct-24 16:32N 37°49' W 122°20'0 0.0
2014-Oct-24 15:32N 37°49' W 122°20'0 0.0
2014-Oct-24 14:32N 37°49' W 122°20'0 0.0
2014-Oct-24 13:32N 37°49' W 122°20'0 0.0
2014-Oct-24 12:32N 37°49' W 122°20'0 0.0
2014-Oct-24 11:32N 37°49' W 122°20'0 0.0
2014-Oct-24 10:32N 37°49' W 122°20'0 0.0
2014-Oct-24 09:32N 37°49' W 122°20'0 0.0
2014-Oct-24 08:32N 37°49' W 122°20'0 0.0
2014-Oct-24 07:32N 37°49' W 122°20'0 0.0
2014-Oct-24 06:32N 37°49' W 122°20'0 0.0
2014-Oct-24 05:32N 37°49' W 122°20'0 0.0
2014-Oct-24 04:32N 37°49' W 122°20'0 0.0
2014-Oct-24 03:32N 37°49' W 122°20'0 0.0
2014-Oct-24 02:32N 37°49' W 122°20'0 0.0
2014-Oct-24 01:32N 37°49' W 122°20'0 0.0
2014-Oct-24 00:33N 37°49' W 122°20'4 4.4
2014-Oct-23 23:33N 37°49' W 122°25'1313.1
2014-Oct-23 22:33N 37°45' W 122°41'10 9.5
2014-Oct-23 21:34N 37°39' W 122°51'1919.1
2014-Oct-23 20:33N 37°23' W 123°04'2220.9
2014-Oct-23 19:31N 37°03' W 122°54'2020.8
2014-Oct-23 18:33N 36°44' W 122°44'2121.2
2014-Oct-23 17:34N 36°25' W 122°33'2121.4
2014-Oct-23 16:34N 36°06' W 122°21'2121.5
2014-Oct-23 15:34N 35°47' W 122°08'2121.2
2014-Oct-23 14:34N 35°30' W 121°53'2120.9
2014-Oct-23 13:34N 35°12' W 121°39'2120.5
2014-Oct-23 12:34N 34°56' W 121°24'2120.7
2014-Oct-23 11:33N 34°41' W 121°07'2120.6
2014-Oct-23 10:34N 34°26' W 120°50'2420.8
2014-Oct-23 09:25N 34°19' W 120°22'1820.7
2014-Oct-23 08:34N 34°15' W 120°01'2120.8
2014-Oct-23 07:34N 34°09' W 119°37'2020.3
2014-Oct-23 06:34N 34°03' W 119°13'1413.9
2014-Oct-23 05:33N 33°56' W 118°59'1111.4
2014-Oct-23 04:34N 33°51' W 118°47'1111.4
2014-Oct-23 03:33N 33°45' W 118°35'1111.1
2014-Oct-23 02:33N 33°40' W 118°23'8 7.7
2014-Oct-23 01:33N 33°43' W 118°15'4 3.6
2014-Oct-23 00:33N 33°46' W 118°16'0 0.0
2014-Oct-22 23:33N 33°46' W 118°16'0 0.0
2014-Oct-22 22:33N 33°46' W 118°16'0 0.0
2014-Oct-22 21:33N 33°46' W 118°16'0 0.0
2014-Oct-22 20:33N 33°46' W 118°16'0 0.0
2014-Oct-22 19:33N 33°46' W 118°16'0 0.0
2014-Oct-22 18:33N 33°46' W 118°16'0 0.0
2014-Oct-22 17:33N 33°46' W 118°16'0 0.0
2014-Oct-22 16:33N 33°46' W 118°16'0 0.0
2014-Oct-22 15:33N 33°46' W 118°16'0 0.0
2014-Oct-22 14:33N 33°46' W 118°16'0 0.0
2014-Oct-22 13:33N 33°46' W 118°16'0 0.0
2014-Oct-22 12:33N 33°46' W 118°16'0 0.0
2014-Oct-22 11:33N 33°46' W 118°16'0 0.0
2014-Oct-22 10:33N 33°46' W 118°16'0 0.0
2014-Oct-22 09:33N 33°46' W 118°16'0 0.0
2014-Oct-22 08:33N 33°46' W 118°16'0 0.0
2014-Oct-22 07:33N 33°46' W 118°16'0 0.0
2014-Oct-22 06:33N 33°46' W 118°16'0 0.0
2014-Oct-22 05:33N 33°46' W 118°16'0 0.0
2014-Oct-22 04:30N 33°46' W 118°16'0 0.0
2014-Oct-22 03:33N 33°46' W 118°16'0 0.0
2014-Oct-22 02:33N 33°46' W 118°16'0 0.0
2014-Oct-22 01:33N 33°46' W 118°16'0 0.0
2014-Oct-22 00:33N 33°46' W 118°16'0 0.0
2014-Oct-21 23:33N 33°46' W 118°16'0 0.0
2014-Oct-21 22:33N 33°46' W 118°16'0 0.0
2014-Oct-21 21:33N 33°46' W 118°16'0 0.0
2014-Oct-21 20:33N 33°46' W 118°16'0 0.0
2014-Oct-21 19:30N 33°46' W 118°16'0 0.0
2014-Oct-21 18:33N 33°46' W 118°16'0 0.0
2014-Oct-21 17:33N 33°46' W 118°16'0 0.0
2014-Oct-21 16:33N 33°46' W 118°16'0 0.0
2014-Oct-21 15:33N 33°46' W 118°16'0 0.0
2014-Oct-21 14:33N 33°46' W 118°16'0 0.0
2014-Oct-21 13:33N 33°46' W 118°16'0 0.0
2014-Oct-21 12:33N 33°46' W 118°16'0 0.0
2014-Oct-21 11:30N 33°46' W 118°16'0 0.0
2014-Oct-21 10:33N 33°46' W 118°16'0 0.0
2014-Oct-21 09:33N 33°46' W 118°16'0 0.0
2014-Oct-21 08:33N 33°46' W 118°16'0 0.0
2014-Oct-21 07:33N 33°46' W 118°16'0 0.0
2014-Oct-21 06:33N 33°46' W 118°16'0 0.0
2014-Oct-21 05:33N 33°46' W 118°16'0 0.0
2014-Oct-21 04:33N 33°46' W 118°16'0 0.0
2014-Oct-21 03:33N 33°46' W 118°16'0 0.0
2014-Oct-21 02:33N 33°46' W 118°16'0 0.0
2014-Oct-21 01:33N 33°46' W 118°16'0 0.0
2014-Oct-21 00:33N 33°46' W 118°16'0 0.0
2014-Oct-20 23:33N 33°46' W 118°16'0 0.0
2014-Oct-20 22:33N 33°46' W 118°16'0 0.0
2014-Oct-20 21:33N 33°46' W 118°16'0 0.0
2014-Oct-20 20:33N 33°46' W 118°16'0 0.0
2014-Oct-20 19:32N 33°46' W 118°16'0 0.0
2014-Oct-20 18:33N 33°46' W 118°16'0 0.0
2014-Oct-20 17:33N 33°46' W 118°16'0 0.0
2014-Oct-20 16:33N 33°46' W 118°16'0 0.1
2014-Oct-20 15:33N 33°46' W 118°16'0 0.0
2014-Oct-20 14:33N 33°46' W 118°16'0 0.0
2014-Oct-20 13:32N 33°46' W 118°16'0 0.0
2014-Oct-20 12:33N 33°46' W 118°16'0 0.0
2014-Oct-20 11:33N 33°46' W 118°16'0 0.0
2014-Oct-20 10:33N 33°46' W 118°16'0 0.0
2014-Oct-20 09:33N 33°46' W 118°16'0 0.0
2014-Oct-20 08:33N 33°46' W 118°16'0 0.0
2014-Oct-20 07:33N 33°46' W 118°16'0 0.0
2014-Oct-20 06:33N 33°46' W 118°16'0 0.0
2014-Oct-20 05:32N 33°46' W 118°16'0 0.0
2014-Oct-20 04:33N 33°46' W 118°16'0 0.0
2014-Oct-20 03:33N 33°46' W 118°16'0 0.0
2014-Oct-20 02:33N 33°46' W 118°16'0 0.0
2014-Oct-20 01:33N 33°46' W 118°16'0 0.0
2014-Oct-20 00:32N 33°46' W 118°16'0 0.0
2014-Oct-19 23:32N 33°46' W 118°16'0 0.0
2014-Oct-19 22:32N 33°46' W 118°16'0 0.0
2014-Oct-19 21:32N 33°46' W 118°16'0 0.0
2014-Oct-19 20:32N 33°46' W 118°16'0 0.0
2014-Oct-19 19:32N 33°46' W 118°16'0 0.0
2014-Oct-19 18:32N 33°46' W 118°16'0 0.0
2014-Oct-19 17:32N 33°46' W 118°16'0 0.0
2014-Oct-19 16:32N 33°46' W 118°16'0 0.0
2014-Oct-19 15:32N 33°46' W 118°16'0 0.0
2014-Oct-19 14:32N 33°46' W 118°16'0 0.0
2014-Oct-19 13:32N 33°46' W 118°16'0 0.0
2014-Oct-19 12:32N 33°46' W 118°16'0 0.0
2014-Oct-19 11:32N 33°46' W 118°16'0 0.0
2014-Oct-19 10:30N 33°46' W 118°16'0 0.0
2014-Oct-19 09:32N 33°46' W 118°16'0 0.0
2014-Oct-19 08:32N 33°46' W 118°16'0 0.0
2014-Oct-19 07:32N 33°46' W 118°16'0 0.0
2014-Oct-19 06:32N 33°46' W 118°16'0 0.0
2014-Oct-19 05:32N 33°46' W 118°16'0 0.0
2014-Oct-19 04:32N 33°46' W 118°16'0 0.0
2014-Oct-19 03:32N 33°46' W 118°16'0 0.0
2014-Oct-19 02:32N 33°46' W 118°16'0 0.0
2014-Oct-19 01:32N 33°46' W 118°16'0 0.0
2014-Oct-19 00:32N 33°46' W 118°16'0 0.0
2014-Oct-18 23:32N 33°46' W 118°16'0 0.0
2014-Oct-18 22:29N 33°46' W 118°16'0 0.0
2014-Oct-18 21:32N 33°46' W 118°16'0 0.0
2014-Oct-18 20:32N 33°46' W 118°16'0 0.0
2014-Oct-18 19:32N 33°46' W 118°16'0 0.0
2014-Oct-18 18:32N 33°46' W 118°16'0 0.0
2014-Oct-18 17:32N 33°46' W 118°16'0 0.0
2014-Oct-18 16:32N 33°46' W 118°16'0 0.0
2014-Oct-18 15:32N 33°46' W 118°16'0 0.0
2014-Oct-18 14:32N 33°46' W 118°16'0 0.0
2014-Oct-18 13:29N 33°46' W 118°16'0 0.0
2014-Oct-18 12:32N 33°46' W 118°16'0 0.0
2014-Oct-18 11:32N 33°46' W 118°16'0 0.0
2014-Oct-18 10:32N 33°46' W 118°16'0 0.0
2014-Oct-18 09:32N 33°46' W 118°16'0 0.0
2014-Oct-18 08:32N 33°46' W 118°16'0 0.0
2014-Oct-18 07:32N 33°46' W 118°16'0 0.0
2014-Oct-18 06:32N 33°46' W 118°16'0 0.0
2014-Oct-18 05:32N 33°46' W 118°16'0 0.0
2014-Oct-18 04:32N 33°46' W 118°16'0 0.0
2014-Oct-18 03:32N 33°46' W 118°16'0 0.0
2014-Oct-18 02:32N 33°46' W 118°16'0 0.0
2014-Oct-18 01:32N 33°46' W 118°16'0 0.0
2014-Oct-18 00:32N 33°46' W 118°16'0 0.0
2014-Oct-17 23:32N 33°46' W 118°16'0 0.0
2014-Oct-17 22:32N 33°46' W 118°16'0 0.0
2014-Oct-17 21:32N 33°46' W 118°16'0 0.0
2014-Oct-17 20:32N 33°46' W 118°16'0 0.0
2014-Oct-17 19:32N 33°46' W 118°16'0 0.0
2014-Oct-17 18:32N 33°46' W 118°16'0 0.0
2014-Oct-17 17:32N 33°46' W 118°16'0 0.0
2014-Oct-17 16:32N 33°46' W 118°16'0 0.0
2014-Oct-17 15:32N 33°46' W 118°16'0 0.0
2014-Oct-17 14:32N 33°46' W 118°16'0 0.0
2014-Oct-17 13:32N 33°46' W 118°16'0 0.0
2014-Oct-17 12:32N 33°46' W 118°16'0 0.0
2014-Oct-17 11:32N 33°46' W 118°16'0 0.0
2014-Oct-17 10:32N 33°46' W 118°16'0 0.0
2014-Oct-17 09:32N 33°46' W 118°16'0 0.0
2014-Oct-17 08:32N 33°46' W 118°16'0 0.0
2014-Oct-17 07:32N 33°46' W 118°16'0 0.0
2014-Oct-17 06:32N 33°46' W 118°16'0 0.0
2014-Oct-17 05:32N 33°46' W 118°16'0 0.0
2014-Oct-17 04:32N 33°46' W 118°16'0 0.0
2014-Oct-17 03:32N 33°46' W 118°16'0 0.0
2014-Oct-17 02:32N 33°46' W 118°16'0 0.0
2014-Oct-17 01:29N 33°46' W 118°16'0 0.0
2014-Oct-17 00:32N 33°46' W 118°16'2 2.0
2014-Oct-16 23:34N 33°44' W 118°16'6 6.0
2014-Oct-16 22:31N 33°38' W 118°14'10 9.9
2014-Oct-16 21:33N 33°38' W 118°25'1211.7
2014-Oct-16 20:34N 33°44' W 118°38'1111.0
2014-Oct-16 19:33N 33°50' W 118°49'2611.0
2014-Oct-16 17:10N 34°03' W 119°16'811.2
2014-Oct-16 16:30N 34°04' W 119°25'9 9.1
2014-Oct-16 15:33N 34°07' W 119°35'1111.0
2014-Oct-16 14:33N 34°10' W 119°48'1111.5
2014-Oct-16 13:34N 34°13' W 120°01'1111.4
2014-Oct-16 12:34N 34°16' W 120°15'1111.2
2014-Oct-16 11:33N 34°19' W 120°28'23 5.1
2014-Oct-16 07:03N 34°28' W 120°53'  

Dump ship's entire track history